sensor_id;sensor_type;location;lat;lon;timestamp;temperature;humidity
14349;DHT22;7258;50.376;8.742;2023-02-12T00:00:31;5.60;99.90
14349;DHT22;7258;50.376;8.742;2023-02-12T00:02:35;5.70;99.90
14349;DHT22;7258;50.376;8.742;2023-02-12T00:04:38;5.60;99.90
14349;DHT22;7258;50.376;8.742;2023-02-12T00:06:41;5.60;99.90
14349;DHT22;7258;50.376;8.742;2023-02-12T00:08:48;5.60;99.90
14349;DHT22;7258;50.376;8.742;2023-02-12T00:10:51;5.60;99.90
14349;DHT22;7258;50.376;8.742;2023-02-12T00:12:54;5.60;99.90
14349;DHT22;7258;50.376;8.742;2023-02-12T00:14:57;5.60;99.90
14349;DHT22;7258;50.376;8.742;2023-02-12T00:17:00;5.60;99.90
14349;DHT22;7258;50.376;8.742;2023-02-12T00:19:05;5.50;99.90
14349;DHT22;7258;50.376;8.742;2023-02-12T00:21:09;5.50;99.90
14349;DHT22;7258;50.376;8.742;2023-02-12T00:23:12;5.50;99.90
14349;DHT22;7258;50.376;8.742;2023-02-12T00:25:15;5.50;99.90
14349;DHT22;7258;50.376;8.742;2023-02-12T00:27:19;5.50;99.90
14349;DHT22;7258;50.376;8.742;2023-02-12T00:29:22;5.50;99.90
14349;DHT22;7258;50.376;8.742;2023-02-12T00:31:28;5.50;99.90
14349;DHT22;7258;50.376;8.742;2023-02-12T00:33:31;5.50;99.90
14349;DHT22;7258;50.376;8.742;2023-02-12T00:35:36;5.50;99.90
14349;DHT22;7258;50.376;8.742;2023-02-12T00:37:40;5.50;99.90
14349;DHT22;7258;50.376;8.742;2023-02-12T00:39:43;5.50;99.90
14349;DHT22;7258;50.376;8.742;2023-02-12T00:42:04;5.50;99.90
14349;DHT22;7258;50.376;8.742;2023-02-12T00:44:09;5.40;99.90
14349;DHT22;7258;50.376;8.742;2023-02-12T00:46:12;5.40;99.90
14349;DHT22;7258;50.376;8.742;2023-02-12T00:48:15;5.40;99.90
14349;DHT22;7258;50.376;8.742;2023-02-12T00:50:19;5.40;99.90
14349;DHT22;7258;50.376;8.742;2023-02-12T00:52:26;5.40;99.90
14349;DHT22;7258;50.376;8.742;2023-02-12T00:54:57;5.40;99.90
14349;DHT22;7258;50.376;8.742;2023-02-12T00:57:14;5.30;99.90
14349;DHT22;7258;50.376;8.742;2023-02-12T00:59:17;5.30;99.90
14349;DHT22;7258;50.376;8.742;2023-02-12T01:01:20;5.20;99.90
14349;DHT22;7258;50.376;8.742;2023-02-12T01:03:23;5.20;99.90
14349;DHT22;7258;50.376;8.742;2023-02-12T01:05:26;5.10;99.90
14349;DHT22;7258;50.376;8.742;2023-02-12T01:07:31;5.00;99.90
14349;DHT22;7258;50.376;8.742;2023-02-12T01:09:34;5.00;99.90
14349;DHT22;7258;50.376;8.742;2023-02-12T01:11:37;4.90;99.90
14349;DHT22;7258;50.376;8.742;2023-02-12T01:13:40;4.90;99.90
14349;DHT22;7258;50.376;8.742;2023-02-12T01:15:43;4.80;99.90
14349;DHT22;7258;50.376;8.742;2023-02-12T01:17:46;4.80;99.90
14349;DHT22;7258;50.376;8.742;2023-02-12T01:19:50;4.80;99.90
14349;DHT22;7258;50.376;8.742;2023-02-12T01:21:52;4.80;99.90
14349;DHT22;7258;50.376;8.742;2023-02-12T01:23:58;4.80;99.90
14349;DHT22;7258;50.376;8.742;2023-02-12T01:26:01;4.80;99.90
14349;DHT22;7258;50.376;8.742;2023-02-12T01:28:04;4.80;99.90
14349;DHT22;7258;50.376;8.742;2023-02-12T01:30:10;4.70;99.90
14349;DHT22;7258;50.376;8.742;2023-02-12T01:32:13;4.70;99.90
14349;DHT22;7258;50.376;8.742;2023-02-12T01:34:17;4.60;99.90
14349;DHT22;7258;50.376;8.742;2023-02-12T01:36:20;4.50;99.90
14349;DHT22;7258;50.376;8.742;2023-02-12T01:38:24;4.40;99.90
14349;DHT22;7258;50.376;8.742;2023-02-12T01:40:28;4.30;99.90
14349;DHT22;7258;50.376;8.742;2023-02-12T01:42:32;4.20;99.90
14349;DHT22;7258;50.376;8.742;2023-02-12T01:44:42;4.20;99.90
14349;DHT22;7258;50.376;8.742;2023-02-12T01:46:47;4.10;99.90
14349;DHT22;7258;50.376;8.742;2023-02-12T01:48:50;4.10;99.90
14349;DHT22;7258;50.376;8.742;2023-02-12T01:50:54;4.10;99.90
14349;DHT22;7258;50.376;8.742;2023-02-12T01:52:58;4.20;99.90
14349;DHT22;7258;50.376;8.742;2023-02-12T01:55:04;4.20;99.90
14349;DHT22;7258;50.376;8.742;2023-02-12T01:57:10;4.20;99.90
14349;DHT22;7258;50.376;8.742;2023-02-12T01:59:14;4.30;99.90
14349;DHT22;7258;50.376;8.742;2023-02-12T02:01:20;4.40;99.90
14349;DHT22;7258;50.376;8.742;2023-02-12T02:03:24;4.50;99.90
14349;DHT22;7258;50.376;8.742;2023-02-12T02:05:32;4.50;99.90
14349;DHT22;7258;50.376;8.742;2023-02-12T02:07:42;4.50;99.90
14349;DHT22;7258;50.376;8.742;2023-02-12T02:09:45;4.60;99.90
14349;DHT22;7258;50.376;8.742;2023-02-12T02:11:48;4.60;99.90
14349;DHT22;7258;50.376;8.742;2023-02-12T02:14:11;4.60;99.90
14349;DHT22;7258;50.376;8.742;2023-02-12T02:16:36;4.70;99.90
14349;DHT22;7258;50.376;8.742;2023-02-12T02:18:43;4.70;99.90
14349;DHT22;7258;50.376;8.742;2023-02-12T02:21:01;4.70;99.90
14349;DHT22;7258;50.376;8.742;2023-02-12T02:23:31;4.70;99.90
14349;DHT22;7258;50.376;8.742;2023-02-12T02:26:19;4.70;99.90
14349;DHT22;7258;50.376;8.742;2023-02-12T02:28:51;4.80;99.90
14349;DHT22;7258;50.376;8.742;2023-02-12T02:30:59;4.80;99.90
14349;DHT22;7258;50.376;8.742;2023-02-12T02:33:12;4.90;99.90
14349;DHT22;7258;50.376;8.742;2023-02-12T02:35:24;4.90;99.90
14349;DHT22;7258;50.376;8.742;2023-02-12T02:37:31;4.90;99.90
14349;DHT22;7258;50.376;8.742;2023-02-12T02:39:37;4.90;99.90
14349;DHT22;7258;50.376;8.742;2023-02-12T02:41:45;4.90;99.90
14349;DHT22;7258;50.376;8.742;2023-02-12T02:43:50;4.90;99.90
14349;DHT22;7258;50.376;8.742;2023-02-12T02:46:00;4.90;99.90
14349;DHT22;7258;50.376;8.742;2023-02-12T02:48:08;4.90;99.90
14349;DHT22;7258;50.376;8.742;2023-02-12T02:50:16;4.90;99.90
14349;DHT22;7258;50.376;8.742;2023-02-12T02:52:27;4.90;99.90
14349;DHT22;7258;50.376;8.742;2023-02-12T02:54:35;4.90;99.90
14349;DHT22;7258;50.376;8.742;2023-02-12T02:56:42;4.90;99.90
14349;DHT22;7258;50.376;8.742;2023-02-12T02:58:49;4.90;99.90
14349;DHT22;7258;50.376;8.742;2023-02-12T03:00:56;4.80;99.90
14349;DHT22;7258;50.376;8.742;2023-02-12T03:03:08;4.80;99.90
14349;DHT22;7258;50.376;8.742;2023-02-12T03:05:15;4.70;99.90
14349;DHT22;7258;50.376;8.742;2023-02-12T03:07:23;4.70;99.90
14349;DHT22;7258;50.376;8.742;2023-02-12T03:09:30;4.60;99.90
14349;DHT22;7258;50.376;8.742;2023-02-12T03:11:34;4.60;99.90
14349;DHT22;7258;50.376;8.742;2023-02-12T03:13:41;4.50;99.90
14349;DHT22;7258;50.376;8.742;2023-02-12T03:15:48;4.50;99.90
14349;DHT22;7258;50.376;8.742;2023-02-12T03:17:53;4.50;99.90
14349;DHT22;7258;50.376;8.742;2023-02-12T03:20:03;4.50;99.90
14349;DHT22;7258;50.376;8.742;2023-02-12T03:22:09;4.50;99.90
14349;DHT22;7258;50.376;8.742;2023-02-12T03:24:17;4.50;99.90
14349;DHT22;7258;50.376;8.742;2023-02-12T03:26:24;4.50;99.90
14349;DHT22;7258;50.376;8.742;2023-02-12T03:28:31;4.50;99.90
14349;DHT22;7258;50.376;8.742;2023-02-12T03:30:40;4.50;99.90
14349;DHT22;7258;50.376;8.742;2023-02-12T03:32:51;4.50;99.90
14349;DHT22;7258;50.376;8.742;2023-02-12T03:35:07;4.50;99.90
14349;DHT22;7258;50.376;8.742;2023-02-12T03:37:15;4.60;99.90
14349;DHT22;7258;50.376;8.742;2023-02-12T03:39:27;4.60;99.90
14349;DHT22;7258;50.376;8.742;2023-02-12T03:41:36;4.60;99.90
14349;DHT22;7258;50.376;8.742;2023-02-12T03:43:46;4.70;99.90
14349;DHT22;7258;50.376;8.742;2023-02-12T03:45:58;4.70;99.90
14349;DHT22;7258;50.376;8.742;2023-02-12T03:48:08;4.70;99.90
14349;DHT22;7258;50.376;8.742;2023-02-12T03:50:16;4.70;99.90
14349;DHT22;7258;50.376;8.742;2023-02-12T03:52:21;4.70;99.90
14349;DHT22;7258;50.376;8.742;2023-02-12T03:54:24;4.70;99.90
14349;DHT22;7258;50.376;8.742;2023-02-12T03:56:32;4.70;99.90
14349;DHT22;7258;50.376;8.742;2023-02-12T03:58:37;4.70;99.90
14349;DHT22;7258;50.376;8.742;2023-02-12T04:00:43;4.70;99.90
14349;DHT22;7258;50.376;8.742;2023-02-12T04:02:47;4.80;99.90
14349;DHT22;7258;50.376;8.742;2023-02-12T04:04:51;4.80;99.90
14349;DHT22;7258;50.376;8.742;2023-02-12T04:06:56;4.80;99.90
14349;DHT22;7258;50.376;8.742;2023-02-12T04:09:02;4.80;99.90
14349;DHT22;7258;50.376;8.742;2023-02-12T04:11:11;4.80;99.90
14349;DHT22;7258;50.376;8.742;2023-02-12T04:13:20;4.80;99.90
14349;DHT22;7258;50.376;8.742;2023-02-12T04:18:03;4.80;99.90
14349;DHT22;7258;50.376;8.742;2023-02-12T04:20:14;4.90;99.90
14349;DHT22;7258;50.376;8.742;2023-02-12T04:22:29;4.90;99.90
14349;DHT22;7258;50.376;8.742;2023-02-12T04:24:43;4.90;99.90
14349;DHT22;7258;50.376;8.742;2023-02-12T04:26:50;4.90;99.90
14349;DHT22;7258;50.376;8.742;2023-02-12T04:29:09;4.90;99.90
14349;DHT22;7258;50.376;8.742;2023-02-12T04:31:21;4.90;99.90
14349;DHT22;7258;50.376;8.742;2023-02-12T04:33:27;4.90;99.90
14349;DHT22;7258;50.376;8.742;2023-02-12T04:35:35;4.90;99.90
14349;DHT22;7258;50.376;8.742;2023-02-12T04:37:47;4.90;99.90
14349;DHT22;7258;50.376;8.742;2023-02-12T04:39:50;4.90;99.90
14349;DHT22;7258;50.376;8.742;2023-02-12T04:41:57;4.90;99.90
14349;DHT22;7258;50.376;8.742;2023-02-12T04:44:13;4.90;99.90
14349;DHT22;7258;50.376;8.742;2023-02-12T04:46:16;4.90;99.90
14349;DHT22;7258;50.376;8.742;2023-02-12T04:48:19;4.90;99.90
14349;DHT22;7258;50.376;8.742;2023-02-12T04:50:22;4.90;99.90
14349;DHT22;7258;50.376;8.742;2023-02-12T04:52:26;5.00;99.90
14349;DHT22;7258;50.376;8.742;2023-02-12T04:54:31;5.00;99.90
14349;DHT22;7258;50.376;8.742;2023-02-12T04:56:34;5.00;99.90
14349;DHT22;7258;50.376;8.742;2023-02-12T04:58:37;5.00;99.90
14349;DHT22;7258;50.376;8.742;2023-02-12T05:00:40;5.00;99.90
14349;DHT22;7258;50.376;8.742;2023-02-12T05:02:43;5.00;99.90
14349;DHT22;7258;50.376;8.742;2023-02-12T05:04:48;5.00;99.90
14349;DHT22;7258;50.376;8.742;2023-02-12T05:06:51;5.00;99.90
14349;DHT22;7258;50.376;8.742;2023-02-12T05:08:54;5.00;99.90
14349;DHT22;7258;50.376;8.742;2023-02-12T05:11:02;5.00;99.90
14349;DHT22;7258;50.376;8.742;2023-02-12T05:13:05;5.00;99.90
14349;DHT22;7258;50.376;8.742;2023-02-12T05:15:09;5.00;99.90
14349;DHT22;7258;50.376;8.742;2023-02-12T05:17:12;5.00;99.90
14349;DHT22;7258;50.376;8.742;2023-02-12T05:19:14;5.00;99.90
14349;DHT22;7258;50.376;8.742;2023-02-12T05:21:17;5.00;99.90
14349;DHT22;7258;50.376;8.742;2023-02-12T05:23:20;5.00;99.90
14349;DHT22;7258;50.376;8.742;2023-02-12T05:25:23;5.00;99.90
14349;DHT22;7258;50.376;8.742;2023-02-12T05:27:28;5.00;99.90
14349;DHT22;7258;50.376;8.742;2023-02-12T05:29:31;5.00;99.90
14349;DHT22;7258;50.376;8.742;2023-02-12T05:31:34;5.00;99.90
14349;DHT22;7258;50.376;8.742;2023-02-12T05:33:37;5.00;99.90
14349;DHT22;7258;50.376;8.742;2023-02-12T05:35:40;5.00;99.90
14349;DHT22;7258;50.376;8.742;2023-02-12T05:37:43;5.00;99.90
14349;DHT22;7258;50.376;8.742;2023-02-12T05:39:48;5.00;99.90
14349;DHT22;7258;50.376;8.742;2023-02-12T05:41:51;5.00;99.90
14349;DHT22;7258;50.376;8.742;2023-02-12T05:43:55;5.00;99.90
14349;DHT22;7258;50.376;8.742;2023-02-12T05:45:59;5.00;99.90
14349;DHT22;7258;50.376;8.742;2023-02-12T05:48:02;5.00;99.90
14349;DHT22;7258;50.376;8.742;2023-02-12T05:50:06;4.90;99.90
14349;DHT22;7258;50.376;8.742;2023-02-12T05:52:09;4.90;99.90
14349;DHT22;7258;50.376;8.742;2023-02-12T05:54:12;4.90;99.90
14349;DHT22;7258;50.376;8.742;2023-02-12T05:56:17;4.90;99.90
14349;DHT22;7258;50.376;8.742;2023-02-12T05:58:21;4.90;99.90
14349;DHT22;7258;50.376;8.742;2023-02-12T06:00:25;4.90;99.90
14349;DHT22;7258;50.376;8.742;2023-02-12T06:02:28;4.90;99.90
14349;DHT22;7258;50.376;8.742;2023-02-12T06:04:31;4.90;99.90
14349;DHT22;7258;50.376;8.742;2023-02-12T06:06:34;4.90;99.90
14349;DHT22;7258;50.376;8.742;2023-02-12T06:08:37;4.90;99.90
14349;DHT22;7258;50.376;8.742;2023-02-12T06:10:41;4.90;99.90
14349;DHT22;7258;50.376;8.742;2023-02-12T06:12:43;4.90;99.90
14349;DHT22;7258;50.376;8.742;2023-02-12T06:14:47;4.80;99.90
14349;DHT22;7258;50.376;8.742;2023-02-12T06:16:51;4.80;99.90
14349;DHT22;7258;50.376;8.742;2023-02-12T06:18:55;4.80;99.90
14349;DHT22;7258;50.376;8.742;2023-02-12T06:20:57;4.80;99.90
14349;DHT22;7258;50.376;8.742;2023-02-12T06:23:00;4.80;99.90
14349;DHT22;7258;50.376;8.742;2023-02-12T06:25:04;4.80;99.90
14349;DHT22;7258;50.376;8.742;2023-02-12T06:27:07;4.80;99.90
14349;DHT22;7258;50.376;8.742;2023-02-12T06:29:10;4.80;99.90
14349;DHT22;7258;50.376;8.742;2023-02-12T06:31:18;4.80;99.90
14349;DHT22;7258;50.376;8.742;2023-02-12T06:33:23;4.80;99.90
14349;DHT22;7258;50.376;8.742;2023-02-12T06:35:26;4.80;99.90
14349;DHT22;7258;50.376;8.742;2023-02-12T06:37:29;4.80;99.90
14349;DHT22;7258;50.376;8.742;2023-02-12T06:39:33;4.80;99.90
14349;DHT22;7258;50.376;8.742;2023-02-12T06:41:36;4.80;99.90
14349;DHT22;7258;50.376;8.742;2023-02-12T06:43:39;4.80;99.90
14349;DHT22;7258;50.376;8.742;2023-02-12T06:45:42;4.80;99.90
14349;DHT22;7258;50.376;8.742;2023-02-12T06:47:45;4.80;99.90
14349;DHT22;7258;50.376;8.742;2023-02-12T06:49:50;4.80;99.90
14349;DHT22;7258;50.376;8.742;2023-02-12T06:51:52;4.80;99.90
14349;DHT22;7258;50.376;8.742;2023-02-12T06:53:56;4.80;99.90
14349;DHT22;7258;50.376;8.742;2023-02-12T06:56:00;4.80;99.90
14349;DHT22;7258;50.376;8.742;2023-02-12T06:58:03;4.80;99.90
14349;DHT22;7258;50.376;8.742;2023-02-12T07:00:07;4.80;99.90
14349;DHT22;7258;50.376;8.742;2023-02-12T07:02:10;4.80;99.90
14349;DHT22;7258;50.376;8.742;2023-02-12T07:04:13;4.80;99.90
14349;DHT22;7258;50.376;8.742;2023-02-12T07:06:18;4.80;99.90
14349;DHT22;7258;50.376;8.742;2023-02-12T07:08:21;4.80;99.90
14349;DHT22;7258;50.376;8.742;2023-02-12T07:10:27;4.80;99.90
14349;DHT22;7258;50.376;8.742;2023-02-12T07:12:32;4.80;99.90
14349;DHT22;7258;50.376;8.742;2023-02-12T07:14:35;4.80;99.90
14349;DHT22;7258;50.376;8.742;2023-02-12T07:16:38;4.80;99.90
14349;DHT22;7258;50.376;8.742;2023-02-12T07:18:41;4.80;99.90
14349;DHT22;7258;50.376;8.742;2023-02-12T07:20:45;4.80;99.90
14349;DHT22;7258;50.376;8.742;2023-02-12T07:22:49;4.80;99.90
14349;DHT22;7258;50.376;8.742;2023-02-12T07:24:52;4.80;99.90
14349;DHT22;7258;50.376;8.742;2023-02-12T07:26:55;4.80;99.90
14349;DHT22;7258;50.376;8.742;2023-02-12T07:28:58;4.80;99.90
14349;DHT22;7258;50.376;8.742;2023-02-12T07:31:06;4.80;99.90
14349;DHT22;7258;50.376;8.742;2023-02-12T07:33:10;4.90;99.90
14349;DHT22;7258;50.376;8.742;2023-02-12T07:35:13;4.90;99.90
14349;DHT22;7258;50.376;8.742;2023-02-12T07:37:16;4.90;99.90
14349;DHT22;7258;50.376;8.742;2023-02-12T07:39:24;4.90;99.90
14349;DHT22;7258;50.376;8.742;2023-02-12T07:41:29;4.90;99.90
14349;DHT22;7258;50.376;8.742;2023-02-12T07:43:32;4.90;99.90
14349;DHT22;7258;50.376;8.742;2023-02-12T07:45:36;4.90;99.90
14349;DHT22;7258;50.376;8.742;2023-02-12T07:47:39;4.90;99.90
14349;DHT22;7258;50.376;8.742;2023-02-12T07:49:42;5.00;99.90
14349;DHT22;7258;50.376;8.742;2023-02-12T07:51:46;5.00;99.90
14349;DHT22;7258;50.376;8.742;2023-02-12T07:53:49;5.00;99.90
14349;DHT22;7258;50.376;8.742;2023-02-12T07:55:54;5.10;99.90
14349;DHT22;7258;50.376;8.742;2023-02-12T07:57:59;5.10;99.90
14349;DHT22;7258;50.376;8.742;2023-02-12T08:00:03;5.10;99.90
14349;DHT22;7258;50.376;8.742;2023-02-12T08:02:11;5.20;99.90
14349;DHT22;7258;50.376;8.742;2023-02-12T08:04:16;5.20;99.90
14349;DHT22;7258;50.376;8.742;2023-02-12T08:06:30;5.30;99.90
14349;DHT22;7258;50.376;8.742;2023-02-12T08:08:34;5.30;99.90
14349;DHT22;7258;50.376;8.742;2023-02-12T08:10:44;5.30;99.90
14349;DHT22;7258;50.376;8.742;2023-02-12T08:12:54;5.40;99.90
14349;DHT22;7258;50.376;8.742;2023-02-12T08:15:02;5.40;99.90
14349;DHT22;7258;50.376;8.742;2023-02-12T08:17:23;5.50;99.90
14349;DHT22;7258;50.376;8.742;2023-02-12T08:19:44;5.50;99.90
14349;DHT22;7258;50.376;8.742;2023-02-12T08:21:53;5.50;99.90
14349;DHT22;7258;50.376;8.742;2023-02-12T08:24:22;5.50;99.90
14349;DHT22;7258;50.376;8.742;2023-02-12T08:26:30;5.50;99.90
14349;DHT22;7258;50.376;8.742;2023-02-12T08:28:50;5.50;99.90
14349;DHT22;7258;50.376;8.742;2023-02-12T08:31:08;5.60;99.90
14349;DHT22;7258;50.376;8.742;2023-02-12T08:33:49;5.60;99.90
14349;DHT22;7258;50.376;8.742;2023-02-12T08:42:30;5.80;99.90
14349;DHT22;7258;50.376;8.742;2023-02-12T08:45:58;5.90;99.90
14349;DHT22;7258;50.376;8.742;2023-02-12T08:48:05;6.00;99.90
14349;DHT22;7258;50.376;8.742;2023-02-12T08:50:46;6.00;99.90
14349;DHT22;7258;50.376;8.742;2023-02-12T08:53:55;6.10;99.90
14349;DHT22;7258;50.376;8.742;2023-02-12T08:56:19;6.20;99.90
14349;DHT22;7258;50.376;8.742;2023-02-12T09:01:26;6.30;99.90
14349;DHT22;7258;50.376;8.742;2023-02-12T09:03:54;6.40;99.90
14349;DHT22;7258;50.376;8.742;2023-02-12T09:06:21;6.40;99.90
14349;DHT22;7258;50.376;8.742;2023-02-12T09:08:37;6.50;99.90
14349;DHT22;7258;50.376;8.742;2023-02-12T09:11:03;6.60;99.90
14349;DHT22;7258;50.376;8.742;2023-02-12T09:13:09;6.70;99.90
14349;DHT22;7258;50.376;8.742;2023-02-12T09:15:26;6.70;99.90
14349;DHT22;7258;50.376;8.742;2023-02-12T09:17:38;6.80;99.90
14349;DHT22;7258;50.376;8.742;2023-02-12T09:19:44;6.90;99.90
14349;DHT22;7258;50.376;8.742;2023-02-12T09:21:50;6.90;99.90
14349;DHT22;7258;50.376;8.742;2023-02-12T09:24:00;7.00;99.90
14349;DHT22;7258;50.376;8.742;2023-02-12T09:26:06;7.10;99.90
14349;DHT22;7258;50.376;8.742;2023-02-12T09:28:10;7.10;99.90
14349;DHT22;7258;50.376;8.742;2023-02-12T09:30:28;7.10;99.90
14349;DHT22;7258;50.376;8.742;2023-02-12T09:32:35;7.10;99.90
14349;DHT22;7258;50.376;8.742;2023-02-12T09:34:43;7.10;99.90
14349;DHT22;7258;50.376;8.742;2023-02-12T09:36:51;7.10;99.90
14349;DHT22;7258;50.376;8.742;2023-02-12T09:38:55;7.20;99.90
14349;DHT22;7258;50.376;8.742;2023-02-12T09:41:11;7.30;99.90
14349;DHT22;7258;50.376;8.742;2023-02-12T09:43:29;7.40;99.90
14349;DHT22;7258;50.376;8.742;2023-02-12T09:45:40;7.50;99.90
14349;DHT22;7258;50.376;8.742;2023-02-12T09:47:48;7.60;99.90
14349;DHT22;7258;50.376;8.742;2023-02-12T09:50:11;7.70;99.90
14349;DHT22;7258;50.376;8.742;2023-02-12T09:52:24;7.80;99.90
14349;DHT22;7258;50.376;8.742;2023-02-12T09:54:33;8.00;99.90
14349;DHT22;7258;50.376;8.742;2023-02-12T09:56:42;8.10;99.90
14349;DHT22;7258;50.376;8.742;2023-02-12T09:58:50;8.20;99.90
14349;DHT22;7258;50.376;8.742;2023-02-12T10:00:55;8.30;99.90
14349;DHT22;7258;50.376;8.742;2023-02-12T10:03:12;8.40;99.90
14349;DHT22;7258;50.376;8.742;2023-02-12T10:05:24;8.60;99.90
14349;DHT22;7258;50.376;8.742;2023-02-12T10:07:36;8.70;99.90
14349;DHT22;7258;50.376;8.742;2023-02-12T10:10:12;8.80;99.90
14349;DHT22;7258;50.376;8.742;2023-02-12T10:12:23;8.80;99.90
14349;DHT22;7258;50.376;8.742;2023-02-12T10:17:21;8.80;99.90
14349;DHT22;7258;50.376;8.742;2023-02-12T10:19:37;8.70;99.90
14349;DHT22;7258;50.376;8.742;2023-02-12T10:22:12;8.70;99.90
14349;DHT22;7258;50.376;8.742;2023-02-12T10:24:30;8.80;99.90
14349;DHT22;7258;50.376;8.742;2023-02-12T10:26:40;8.80;99.90
14349;DHT22;7258;50.376;8.742;2023-02-12T10:28:44;8.80;99.90
14349;DHT22;7258;50.376;8.742;2023-02-12T10:30:51;8.80;99.90
14349;DHT22;7258;50.376;8.742;2023-02-12T10:33:16;8.80;99.90
14349;DHT22;7258;50.376;8.742;2023-02-12T10:35:24;8.80;99.90
14349;DHT22;7258;50.376;8.742;2023-02-12T10:37:36;8.60;99.90
14349;DHT22;7258;50.376;8.742;2023-02-12T10:39:49;8.60;99.90
14349;DHT22;7258;50.376;8.742;2023-02-12T10:42:00;8.60;99.90
14349;DHT22;7258;50.376;8.742;2023-02-12T10:44:08;8.60;99.90
14349;DHT22;7258;50.376;8.742;2023-02-12T10:46:14;8.50;99.90
14349;DHT22;7258;50.376;8.742;2023-02-12T10:48:21;8.50;99.90
14349;DHT22;7258;50.376;8.742;2023-02-12T10:50:40;8.50;99.90
14349;DHT22;7258;50.376;8.742;2023-02-12T10:52:49;8.60;99.90
14349;DHT22;7258;50.376;8.742;2023-02-12T10:54:55;8.70;99.90
14349;DHT22;7258;50.376;8.742;2023-02-12T10:57:07;8.70;99.90
14349;DHT22;7258;50.376;8.742;2023-02-12T10:59:22;8.90;99.90
14349;DHT22;7258;50.376;8.742;2023-02-12T11:01:27;8.90;99.90
14349;DHT22;7258;50.376;8.742;2023-02-12T11:03:38;9.00;99.90
14349;DHT22;7258;50.376;8.742;2023-02-12T11:05:55;9.00;99.90
14349;DHT22;7258;50.376;8.742;2023-02-12T11:08:01;9.00;99.90
14349;DHT22;7258;50.376;8.742;2023-02-12T11:10:19;9.00;99.90
14349;DHT22;7258;50.376;8.742;2023-02-12T11:12:30;8.90;99.90
14349;DHT22;7258;50.376;8.742;2023-02-12T11:14:41;8.90;99.90
14349;DHT22;7258;50.376;8.742;2023-02-12T11:16:58;8.90;99.90
14349;DHT22;7258;50.376;8.742;2023-02-12T11:19:05;8.90;99.90
14349;DHT22;7258;50.376;8.742;2023-02-12T11:21:22;8.90;99.90
14349;DHT22;7258;50.376;8.742;2023-02-12T11:23:28;9.00;99.90
14349;DHT22;7258;50.376;8.742;2023-02-12T11:25:34;9.10;99.90
14349;DHT22;7258;50.376;8.742;2023-02-12T11:27:38;9.30;99.90
14349;DHT22;7258;50.376;8.742;2023-02-12T11:30:06;9.40;99.90
14349;DHT22;7258;50.376;8.742;2023-02-12T11:32:16;9.50;99.90
14349;DHT22;7258;50.376;8.742;2023-02-12T11:34:19;9.60;99.90
14349;DHT22;7258;50.376;8.742;2023-02-12T11:36:24;9.70;99.90
14349;DHT22;7258;50.376;8.742;2023-02-12T11:38:48;9.70;99.90
14349;DHT22;7258;50.376;8.742;2023-02-12T11:40:57;9.80;99.90
14349;DHT22;7258;50.376;8.742;2023-02-12T11:43:16;9.90;99.90
14349;DHT22;7258;50.376;8.742;2023-02-12T11:45:33;9.90;99.90
14349;DHT22;7258;50.376;8.742;2023-02-12T11:47:39;10.00;99.90
14349;DHT22;7258;50.376;8.742;2023-02-12T11:49:48;10.00;99.90
14349;DHT22;7258;50.376;8.742;2023-02-12T11:51:53;10.10;99.90
14349;DHT22;7258;50.376;8.742;2023-02-12T11:54:03;10.20;99.90
14349;DHT22;7258;50.376;8.742;2023-02-12T11:56:08;10.20;99.90
14349;DHT22;7258;50.376;8.742;2023-02-12T11:58:52;10.20;99.90
14349;DHT22;7258;50.376;8.742;2023-02-12T12:01:07;10.10;99.90
14349;DHT22;7258;50.376;8.742;2023-02-12T12:03:17;10.20;99.90
14349;DHT22;7258;50.376;8.742;2023-02-12T12:05:27;10.10;99.90
14349;DHT22;7258;50.376;8.742;2023-02-12T12:07:35;10.10;99.90
14349;DHT22;7258;50.376;8.742;2023-02-12T12:09:57;10.10;99.90
14349;DHT22;7258;50.376;8.742;2023-02-12T12:12:15;10.10;99.90
14349;DHT22;7258;50.376;8.742;2023-02-12T12:14:23;10.10;99.90
14349;DHT22;7258;50.376;8.742;2023-02-12T12:16:33;10.10;99.90
14349;DHT22;7258;50.376;8.742;2023-02-12T12:18:58;10.10;99.90
14349;DHT22;7258;50.376;8.742;2023-02-12T12:21:27;10.00;99.90
14349;DHT22;7258;50.376;8.742;2023-02-12T12:23:34;9.90;99.90
14349;DHT22;7258;50.376;8.742;2023-02-12T12:25:55;9.70;99.90
14349;DHT22;7258;50.376;8.742;2023-02-12T12:28:36;9.70;99.90
14349;DHT22;7258;50.376;8.742;2023-02-12T12:31:08;9.80;99.90
14349;DHT22;7258;50.376;8.742;2023-02-12T12:33:19;10.00;99.90
14349;DHT22;7258;50.376;8.742;2023-02-12T12:35:38;10.10;99.90
14349;DHT22;7258;50.376;8.742;2023-02-12T12:37:56;10.30;99.90
14349;DHT22;7258;50.376;8.742;2023-02-12T12:40:36;10.20;99.90
14349;DHT22;7258;50.376;8.742;2023-02-12T12:43:12;10.10;99.90
14349;DHT22;7258;50.376;8.742;2023-02-12T12:49:59;9.80;99.90
14349;DHT22;7258;50.376;8.742;2023-02-12T12:51:58;9.80;99.90
14349;DHT22;7258;50.376;8.742;2023-02-12T12:54:32;9.70;99.90
14349;DHT22;7258;50.376;8.742;2023-02-12T12:56:49;9.70;99.90
14349;DHT22;7258;50.376;8.742;2023-02-12T13:00:22;9.70;99.90
14349;DHT22;7258;50.376;8.742;2023-02-12T13:09:12;10.10;99.90
14349;DHT22;7258;50.376;8.742;2023-02-12T13:16:02;10.70;99.90
14349;DHT22;7258;50.376;8.742;2023-02-12T13:18:46;11.00;99.90
14349;DHT22;7258;50.376;8.742;2023-02-12T13:23:39;11.20;99.90
14349;DHT22;7258;50.376;8.742;2023-02-12T13:24:38;11.30;99.90
14349;DHT22;7258;50.376;8.742;2023-02-12T13:27:15;11.20;99.90
14349;DHT22;7258;50.376;8.742;2023-02-12T13:30:16;11.00;99.90
14349;DHT22;7258;50.376;8.742;2023-02-12T13:32:43;10.70;99.90
14349;DHT22;7258;50.376;8.742;2023-02-12T13:34:54;10.30;99.90
14349;DHT22;7258;50.376;8.742;2023-02-12T13:37:06;10.10;99.90
14349;DHT22;7258;50.376;8.742;2023-02-12T13:39:18;10.00;99.90
14349;DHT22;7258;50.376;8.742;2023-02-12T13:41:26;9.90;99.90
14349;DHT22;7258;50.376;8.742;2023-02-12T13:43:42;9.70;99.90
14349;DHT22;7258;50.376;8.742;2023-02-12T13:45:51;9.70;99.90
14349;DHT22;7258;50.376;8.742;2023-02-12T13:48:15;9.60;99.90
14349;DHT22;7258;50.376;8.742;2023-02-12T13:50:40;9.60;99.90
14349;DHT22;7258;50.376;8.742;2023-02-12T13:52:52;9.60;99.90
14349;DHT22;7258;50.376;8.742;2023-02-12T13:55:54;9.60;99.90
14349;DHT22;7258;50.376;8.742;2023-02-12T13:58:45;9.70;99.90
14349;DHT22;7258;50.376;8.742;2023-02-12T14:02:17;9.70;99.90
14349;DHT22;7258;50.376;8.742;2023-02-12T14:08:02;9.90;99.90
14349;DHT22;7258;50.376;8.742;2023-02-12T14:11:02;10.00;99.90
14349;DHT22;7258;50.376;8.742;2023-02-12T14:13:36;10.00;99.90
14349;DHT22;7258;50.376;8.742;2023-02-12T14:18:44;10.10;99.90
14349;DHT22;7258;50.376;8.742;2023-02-12T14:20:07;10.10;99.90
14349;DHT22;7258;50.376;8.742;2023-02-12T14:34:50;10.00;99.90
14349;DHT22;7258;50.376;8.742;2023-02-12T14:37:31;10.00;99.90
14349;DHT22;7258;50.376;8.742;2023-02-12T14:43:33;9.90;99.90
14349;DHT22;7258;50.376;8.742;2023-02-12T14:46:52;9.80;99.90
14349;DHT22;7258;50.376;8.742;2023-02-12T14:49:24;9.70;99.90
14349;DHT22;7258;50.376;8.742;2023-02-12T14:51:56;9.60;99.90
14349;DHT22;7258;50.376;8.742;2023-02-12T14:54:20;9.60;99.90
14349;DHT22;7258;50.376;8.742;2023-02-12T14:56:47;9.60;99.90
14349;DHT22;7258;50.376;8.742;2023-02-12T14:59:20;9.50;99.90
14349;DHT22;7258;50.376;8.742;2023-02-12T15:01:32;9.40;99.90
14349;DHT22;7258;50.376;8.742;2023-02-12T15:03:53;9.40;99.90
14349;DHT22;7258;50.376;8.742;2023-02-12T15:06:15;9.30;99.90
14349;DHT22;7258;50.376;8.742;2023-02-12T15:08:33;9.30;99.90